Time;durP1;ratioP1;P1;durP2;ratioP2;P2;SDS_P1;SDS_P2;PMS_P1;PMS_P2;Temp;Humidity;BMP_temperature;BMP_pressure;BME280_temperature;BME280_humidity;BME280_pressure;Samples;Min_cycle;Max_cycle;Signal;HPM_P1;HPM_P2
2022/09/02 00:01:36;;;;;;;1.25;1.00;;;10.30;99.90;;;9.11;100.00;101982.38;4999829;28;20035;-81
2022/09/02 00:04:28;;;;;;;1.95;1.20;;;10.30;99.90;;;9.11;100.00;101981.50;4983280;28;20061;-80
2022/09/02 00:06:56;;;;;;;2.00;1.02;;;10.30;99.90;;;9.08;100.00;101974.56;4979085;28;20051;-80
2022/09/02 00:09:33;;;;;;;2.95;1.17;;;10.30;99.90;;;9.13;100.00;101977.09;4983916;28;20032;-80
2022/09/02 00:11:59;;;;;;;1.38;1.00;;;10.30;99.90;;;9.16;100.00;101966.53;4984221;28;20030;-80
2022/09/02 00:14:36;;;;;;;4.00;1.10;;;10.30;99.90;;;9.15;100.00;101960.38;4982212;28;20399;-80
2022/09/02 00:17:07;;;;;;;2.22;1.00;;;10.30;99.90;;;9.14;100.00;101966.56;5006032;28;20058;-80
2022/09/02 00:19:38;;;;;;;1.00;0.88;;;10.40;99.90;;;9.17;100.00;101961.22;4996878;28;20415;-80
2022/09/02 00:22:06;;;;;;;3.88;0.80;;;10.40;99.90;;;9.20;100.00;101971.69;4996387;28;20050;-80
2022/09/02 00:24:32;;;;;;;2.95;0.85;;;10.30;99.90;;;9.21;100.00;101975.16;4983248;28;20084;-80
2022/09/02 00:26:58;;;;;;;1.30;0.70;;;10.40;99.90;;;9.16;100.00;101962.13;4982881;28;20034;-80
2022/09/02 00:29:29;;;;;;;1.73;0.82;;;10.40;99.90;;;9.21;100.00;101962.88;5006064;28;20030;-80
2022/09/02 00:31:55;;;;;;;1.05;0.70;;;10.40;99.90;;;9.24;100.00;101962.84;4997616;28;20026;-80
2022/09/02 00:34:22;;;;;;;1.55;0.70;;;10.40;99.90;;;9.24;100.00;101970.72;4982848;28;20027;-80
2022/09/02 00:36:48;;;;;;;1.83;1.10;;;10.40;99.90;;;9.23;100.00;101976.88;4984283;28;20031;-79
2022/09/02 00:39:13;;;;;;;1.85;0.85;;;10.40;99.90;;;9.15;100.00;101970.03;4980646;28;20109;-80
2022/09/02 00:41:46;;;;;;;2.33;0.80;;;10.40;99.90;;;9.11;100.00;101966.59;4981952;28;20033;-80
2022/09/02 00:44:16;;;;;;;1.58;1.00;;;10.30;99.90;;;9.04;100.00;101972.88;4980022;28;20026;-79
2022/09/02 00:46:42;;;;;;;1.63;1.00;;;10.30;99.90;;;9.02;100.00;101974.69;4982711;28;20027;-80
2022/09/02 00:49:24;;;;;;;1.88;0.80;;;10.20;99.90;;;8.98;100.00;101973.00;4985290;28;20035;-80
2022/09/02 00:52:02;;;;;;;2.08;0.75;;;10.20;99.90;;;8.93;100.00;101967.84;4982111;28;20511;-79
2022/09/02 00:54:32;;;;;;;6.43;1.20;;;10.10;99.90;;;8.89;100.00;101963.53;4981578;28;20027;-80
2022/09/02 00:57:02;;;;;;;1.08;0.90;;;10.10;99.90;;;8.85;100.00;101964.50;4982132;28;20640;-79
2022/09/02 00:59:55;;;;;;;3.05;0.82;;;10.10;99.90;;;8.83;100.00;101969.81;4986870;28;20030;-80
2022/09/02 01:02:24;;;;;;;1.98;0.80;;;10.00;99.90;;;8.79;100.00;101967.25;5008982;28;20490;-80
2022/09/02 01:04:50;;;;;;;3.67;1.30;;;10.00;99.90;;;8.75;100.00;101960.34;4999189;28;20034;-80
2022/09/02 01:07:21;;;;;;;4.30;1.00;;;9.90;99.90;;;8.76;100.00;101962.06;4984642;28;20034;-80
2022/09/02 01:09:47;;;;;;;3.33;0.88;;;9.90;99.90;;;8.75;100.00;101950.69;4985503;28;20062;-80
2022/09/02 01:12:15;;;;;;;3.47;1.20;;;9.90;99.90;;;8.73;100.00;101957.75;4986228;28;20057;-80
2022/09/02 01:14:41;;;;;;;2.45;1.02;;;9.90;99.90;;;8.70;100.00;101952.53;4984934;28;20082;-80
2022/09/02 01:17:08;;;;;;;1.40;1.00;;;9.90;99.90;;;8.68;100.00;101953.47;4986313;28;20034;-80
2022/09/02 01:19:46;;;;;;;2.35;0.90;;;9.90;99.90;;;8.63;100.00;101946.53;4999095;28;20030;-80
2022/09/02 01:22:28;;;;;;;4.90;1.10;;;9.80;99.90;;;8.60;100.00;101945.75;4984707;28;20037;-80
2022/09/02 01:24:59;;;;;;;1.85;1.35;;;9.70;99.90;;;8.55;100.00;101947.56;4987821;28;20034;-80
2022/09/02 01:27:26;;;;;;;2.50;1.20;;;9.70;99.90;;;8.51;100.00;101951.16;4984984;28;20153;-80
2022/09/02 01:29:57;;;;;;;1.90;1.13;;;9.70;99.90;;;8.45;100.00;101940.78;4985106;28;20066;-79
2022/09/02 01:32:29;;;;;;;2.25;1.20;;;9.60;99.90;;;8.35;100.00;101940.91;4984804;28;20042;-81
2022/09/02 01:34:55;;;;;;;3.25;0.82;;;9.60;99.90;;;8.24;100.00;101940.22;4985499;28;20039;-80
2022/09/02 01:37:21;;;;;;;4.25;1.10;;;9.50;99.90;;;8.14;100.00;101938.66;4974034;28;20034;-80
2022/09/02 01:39:47;;;;;;;3.60;0.85;;;9.40;99.90;;;8.06;100.00;101936.16;4986083;28;20037;-80
2022/09/02 01:42:19;;;;;;;3.50;1.20;;;9.30;99.90;;;7.95;100.00;101940.72;4985439;28;20027;-81
2022/09/02 01:44:45;;;;;;;2.38;0.93;;;9.20;99.90;;;7.90;100.00;101937.31;4984157;28;20102;-80
2022/09/02 01:47:14;;;;;;;1.38;1.00;;;9.10;99.90;;;7.84;100.00;101932.16;4987032;28;20534;-79
2022/09/02 01:49:50;;;;;;;1.60;1.00;;;9.10;99.90;;;7.79;100.00;101935.72;4985375;28;20483;-80
2022/09/02 01:52:17;;;;;;;2.25;1.20;;;9.00;99.90;;;7.71;100.00;101932.38;4986187;28;20053;-80
2022/09/02 01:54:43;;;;;;;6.47;0.98;;;9.00;99.90;;;7.66;100.00;101928.94;4983630;28;20495;-80
2022/09/02 01:57:17;;;;;;;5.00;1.25;;;8.90;99.90;;;7.63;100.00;101933.38;4984082;28;20030;-80
2022/09/02 01:59:44;;;;;;;5.15;1.02;;;8.90;99.90;;;7.59;100.00;101925.53;4985740;28;20139;-80
2022/09/02 02:02:12;;;;;;;2.53;0.90;;;8.90;99.90;;;7.57;100.00;101929.94;4967991;28;20486;-80
2022/09/02 02:04:45;;;;;;;2.15;1.20;;;8.90;99.90;;;7.58;100.00;101921.19;4986415;28;20031;-80
2022/09/02 02:07:14;;;;;;;4.45;1.65;;;8.80;99.90;;;7.59;100.00;101911.56;4983087;28;20065;-80
2022/09/02 02:09:49;;;;;;;4.35;1.45;;;8.80;99.90;;;7.62;100.00;101915.88;4983239;28;20045;-80
2022/09/02 02:12:16;;;;;;;1.58;1.08;;;8.80;99.90;;;7.61;100.00;101920.28;4985693;28;20042;-80
2022/09/02 02:14:42;;;;;;;2.67;1.10;;;8.80;99.90;;;7.59;100.00;101912.44;5001296;22;20184;-80
2022/09/02 02:17:08;;;;;;;3.60;1.20;;;8.80;99.90;;;7.56;100.00;101907.25;5059059;28;20034;-80
2022/09/02 02:19:39;;;;;;;2.03;1.25;;;8.80;99.90;;;7.55;100.00;101900.25;5060137;28;20032;-80
2022/09/02 02:22:05;;;;;;;3.15;1.00;;;8.80;99.90;;;7.51;100.00;101906.44;5064005;28;20028;-80
2022/09/02 02:24:31;;;;;;;3.15;1.48;;;8.70;99.90;;;7.48;100.00;101911.72;5058111;28;20036;-80
2022/09/02 02:26:57;;;;;;;2.10;1.50;;;8.70;99.90;;;7.45;100.00;101914.41;5023891;28;20030;-80
2022/09/02 02:29:22;;;;;;;3.03;1.45;;;8.70;99.90;;;7.37;100.00;101916.25;5022552;28;20032;-80
2022/09/02 02:31:58;;;;;;;2.20;1.60;;;8.60;99.90;;;7.34;100.00;101917.19;5021000;28;20112;-80
2022/09/02 02:34:26;;;;;;;4.53;1.87;;;8.60;99.90;;;7.32;100.00;101925.94;5019104;23;20321;-81
2022/09/02 02:37:11;;;;;;;;;;;;;;;;;;;;;
2022/09/02 02:39:42;;;;;;;2.13;1.30;;;8.50;99.90;;;7.23;100.00;101923.44;5023669;28;20017;-80
2022/09/02 02:42:08;;;;;;;1.50;1.30;;;8.50;99.90;;;7.18;100.00;101920.88;5024741;28;20024;-80
2022/09/02 02:44:34;;;;;;;1.45;1.30;;;8.50;99.90;;;7.24;100.00;101928.66;5012181;28;20033;-80
2022/09/02 02:47:00;;;;;;;2.70;1.38;;;8.50;99.90;;;7.27;100.00;101927.75;5040612;28;20021;-79
2022/09/02 02:49:37;;;;;;;4.80;1.60;;;8.50;99.90;;;7.30;100.00;101920.72;5022861;28;20032;-80
2022/09/02 02:52:13;;;;;;;;;;;;;;;;;;;;;
2022/09/02 02:54:41;;;;;;;3.30;1.58;;;8.50;99.90;;;7.31;100.00;101930.31;5051073;23;20055;-80
2022/09/02 02:57:07;;;;;;;2.67;1.40;;;8.60;99.90;;;7.35;100.00;101928.53;5059704;28;20527;-80
2022/09/02 02:59:41;;;;;;;2.10;1.40;;;8.60;99.90;;;7.33;100.00;101925.06;5043873;28;20025;-80
2022/09/02 03:02:06;;;;;;;3.03;1.40;;;8.60;99.90;;;7.34;100.00;101926.78;5025444;28;20377;-80
2022/09/02 03:04:33;;;;;;;3.85;1.73;;;8.60;99.90;;;7.34;100.00;101918.91;5056666;28;20160;-80
2022/09/02 03:06:59;;;;;;;3.38;1.65;;;8.60;99.90;;;7.33;100.00;101927.69;5024644;28;20029;-79
2022/09/02 03:09:28;;;;;;;6.25;1.70;;;8.60;99.90;;;7.31;100.00;101922.44;5023822;28;20405;-80
2022/09/02 03:11:54;;;;;;;2.55;1.35;;;8.60;99.90;;;7.31;100.00;101921.59;5025145;28;20030;-79
2022/09/02 03:14:20;;;;;;;5.75;1.27;;;8.60;99.90;;;7.34;100.00;101921.53;5029978;22;20064;-79
2022/09/02 03:16:46;;;;;;;3.85;1.85;;;8.60;99.90;;;7.34;100.00;101909.31;5041850;28;20033;-80
2022/09/02 03:19:13;;;;;;;7.95;2.15;;;8.60;99.90;;;7.35;100.00;101912.81;5028216;28;20086;-79
2022/09/02 03:21:40;;;;;;;1.98;1.70;;;8.60;99.90;;;7.25;100.00;101911.19;5025673;28;20139;-80
2022/09/02 03:24:12;;;;;;;3.92;1.55;;;8.50;99.90;;;7.12;100.00;101910.47;5023975;28;20018;-80
2022/09/02 03:26:42;;;;;;;4.97;1.60;;;8.40;99.90;;;6.99;100.00;101913.25;5021491;28;20033;-79
2022/09/02 03:29:16;;;;;;;2.78;1.45;;;8.30;99.90;;;6.92;100.00;101914.22;5009026;28;20030;-79
2022/09/02 03:31:41;;;;;;;4.97;1.60;;;8.30;99.90;;;6.90;100.00;101917.75;5012744;28;20044;-79
2022/09/02 03:34:07;;;;;;;3.30;1.92;;;8.20;99.90;;;6.87;100.00;101908.19;5009288;28;20057;-80
2022/09/02 03:36:46;;;;;;;3.53;2.25;;;8.20;99.90;;;6.86;100.00;101913.44;5028860;23;20052;-79
2022/09/02 03:39:13;;;;;;;4.35;1.45;;;8.20;99.90;;;6.82;100.00;101909.13;5024033;28;20025;-80
2022/09/02 03:41:40;;;;;;;2.58;1.55;;;8.10;99.90;;;6.82;100.00;101912.59;5006191;28;20158;-79
2022/09/02 03:44:07;;;;;;;3.40;1.70;;;8.10;99.90;;;6.81;100.00;101912.63;5020059;23;20511;-77
2022/09/02 03:46:35;;;;;;;3.53;1.85;;;8.10;99.90;;;6.78;100.00;101910.91;4972359;28;20035;-76
2022/09/02 03:49:02;;;;;;;3.78;1.30;;;8.10;99.90;;;6.75;100.00;101909.19;4971058;28;20030;-75
2022/09/02 03:51:28;;;;;;;3.40;2.22;;;8.00;99.90;;;6.72;100.00;101911.84;4966825;28;20503;-76
2022/09/02 03:53:54;;;;;;;10.70;1.73;;;8.00;99.90;;;6.70;100.00;101918.88;4972940;28;20031;-77
2022/09/02 03:56:23;;;;;;;4.00;1.95;;;8.00;99.90;;;6.70;100.00;101916.25;4988252;28;20050;-77
2022/09/02 03:58:50;;;;;;;3.92;1.63;;;8.00;99.90;;;6.65;100.00;101918.06;4985598;28;20050;-76
2022/09/02 04:01:23;;;;;;;3.20;2.10;;;7.90;99.90;;;6.64;100.00;101913.69;4986176;28;20057;-77
2022/09/02 04:03:49;;;;;;;3.92;1.55;;;7.90;99.90;;;6.64;100.00;101912.84;4983942;28;20118;-76
2022/09/02 04:06:18;;;;;;;6.53;2.10;;;7.90;99.90;;;6.65;100.00;101914.56;4989614;28;20023;-77
2022/09/02 04:08:45;;;;;;;3.20;1.67;;;7.90;99.90;;;6.68;100.00;101915.38;4984676;28;20174;-76
2022/09/02 04:11:16;;;;;;;8.23;2.00;;;7.90;99.90;;;6.71;100.00;101912.72;4986126;28;20030;-76
2022/09/02 04:13:44;;;;;;;3.83;1.85;;;7.90;99.90;;;6.71;100.00;101914.47;4969447;28;20033;-76
2022/09/02 04:16:15;;;;;;;2.70;2.10;;;8.00;99.90;;;6.72;100.00;101911.84;4984382;28;20129;-76
2022/09/02 04:19:03;;;;;;;3.90;2.15;;;8.00;99.90;;;6.74;100.00;101910.09;4989065;28;20715;-76
2022/09/02 04:21:33;;;;;;;3.17;2.28;;;8.00;99.90;;;6.80;100.00;101909.13;4986974;28;20027;-77
2022/09/02 04:23:59;;;;;;;5.95;2.20;;;8.10;99.90;;;6.84;100.00;101912.59;4985638;28;20351;-76
2022/09/02 04:26:25;;;;;;;3.00;2.00;;;8.10;99.90;;;6.83;100.00;101905.63;4984531;28;20030;-76
2022/09/02 04:28:52;;;;;;;6.85;2.10;;;8.10;99.90;;;6.81;100.00;101912.63;4986886;28;20542;-76
2022/09/02 04:31:21;;;;;;;2.83;2.03;;;8.00;99.90;;;6.80;100.00;101919.59;4987871;28;20047;-76
2022/09/02 04:33:47;;;;;;;3.08;1.83;;;8.00;99.90;;;6.77;100.00;101917.91;4991255;28;20114;-77
2022/09/02 04:36:15;;;;;;;1.58;1.38;;;8.00;99.90;;;6.79;100.00;101915.25;4989121;28;20050;-76
2022/09/02 04:38:42;;;;;;;2.80;1.60;;;8.10;99.90;;;6.84;100.00;101913.44;4988969;28;20435;-76
2022/09/02 04:41:16;;;;;;;6.07;1.80;;;8.10;99.90;;;6.91;100.00;101914.25;4991559;28;20034;-76
2022/09/02 04:43:42;;;;;;;5.60;2.15;;;8.10;99.90;;;6.95;100.00;101915.94;4974894;28;20027;-76
2022/09/02 04:46:12;;;;;;;5.55;1.80;;;8.20;99.90;;;6.99;100.00;101909.78;4991076;28;20458;-76
2022/09/02 04:48:39;;;;;;;3.92;1.95;;;8.20;99.90;;;7.00;100.00;101903.66;4989117;28;20659;-76
2022/09/02 04:51:11;;;;;;;8.60;2.00;;;8.20;99.90;;;7.05;100.00;101907.09;4988963;28;20038;-77
2022/09/02 04:53:38;;;;;;;5.10;1.63;;;8.20;99.90;;;7.08;100.00;101907.03;4991453;28;20030;-76
2022/09/02 04:56:09;;;;;;;2.00;1.40;;;8.30;99.90;;;7.15;100.00;101911.31;4989159;28;20035;-76
2022/09/02 04:58:36;;;;;;;6.22;1.65;;;8.30;99.90;;;7.23;100.00;101907.72;4973917;28;20033;-76
2022/09/02 05:01:14;;;;;;;2.30;1.88;;;8.30;99.90;;;7.30;100.00;101898.88;4964483;28;20077;-76
2022/09/02 05:03:44;;;;;;;4.28;2.00;;;8.40;99.90;;;7.43;100.00;101904.81;4973036;28;20049;-76
2022/09/02 05:06:16;;;;;;;1.83;1.60;;;8.50;99.90;;;7.52;100.00;101913.41;4991261;28;20023;-76
2022/09/02 05:08:43;;;;;;;6.45;1.58;;;8.60;99.90;;;7.68;100.00;101905.31;4991269;28;20098;-77
2022/09/02 05:11:17;;;;;;;4.18;2.15;;;8.70;99.90;;;7.88;100.00;101913.72;4988419;28;20038;-76
2022/09/02 05:13:50;;;;;;;2.55;1.83;;;8.80;99.90;;;7.96;100.00;101910.97;4972407;28;20038;-76
2022/09/02 05:16:19;;;;;;;3.40;2.03;;;8.90;99.90;;;8.09;100.00;101906.38;4991392;28;20031;-76
2022/09/02 05:18:46;;;;;;;2.53;1.70;;;9.20;99.90;;;9.56;100.00;101908.66;4990860;28;20076;-77
2022/09/02 05:21:12;;;;;;;4.97;2.15;;;9.40;99.90;;;9.34;100.00;101900.41;4988702;28;20031;-76
2022/09/02 05:23:39;;;;;;;4.82;1.60;;;9.80;99.90;;;10.72;98.42;101921.53;4988820;28;20027;-75
2022/09/02 05:26:07;;;;;;;3.20;1.85;;;10.70;99.90;;;13.00;88.28;101918.47;4986933;28;20041;-76
2022/09/02 05:28:34;;;;;;;1.42;1.30;;;11.20;99.90;;;12.02;83.82;101912.25;4989618;28;20109;-76
2022/09/02 05:31:11;;;;;;;5.63;1.85;;;11.80;99.90;;;13.75;80.23;101931.41;4988816;28;20035;-76
2022/09/02 05:33:39;;;;;;;3.42;1.35;;;13.00;99.90;;;18.67;66.57;101941.97;4987698;28;20307;-76
2022/09/02 05:36:11;;;;;;;2.10;1.27;;;13.90;99.90;;;16.06;67.59;101914.78;4987235;28;20035;-76
2022/09/02 05:38:38;;;;;;;4.95;1.55;;;14.20;99.90;;;15.26;70.12;101922.19;4971837;28;20023;-76
2022/09/02 05:41:13;;;;;;;1.95;1.30;;;14.20;99.90;;;14.30;70.97;101919.44;4989671;28;20030;-76
2022/09/02 05:43:43;;;;;;;2.22;1.80;;;14.00;99.90;;;13.59;73.40;101911.78;4974203;28;20031;-76
2022/09/02 05:46:13;;;;;;;5.75;1.83;;;13.70;99.90;;;13.26;75.30;101920.13;4987937;28;20038;-76
2022/09/02 05:51:24;;;;;;;5.13;2.20;;;13.20;99.90;;;12.69;79.04;101918.72;4984111;28;20411;-76
2022/09/02 05:53:55;;;;;;;3.33;1.80;;;13.40;99.90;;;16.52;72.47;101944.31;4991625;28;20054;-76
2022/09/02 05:56:29;;;;;;;6.00;1.70;;;14.20;99.90;;;16.26;68.95;101932.38;4972073;28;20062;-76
2022/09/02 05:58:57;;;;;;;4.63;1.80;;;14.70;99.90;;;15.44;70.56;101924.88;4987923;28;20031;-76
2022/09/02 06:01:23;;;;;;;3.10;1.75;;;15.10;99.90;;;17.03;70.22;101953.16;4986047;28;20818;-76
2022/09/02 06:03:51;;;;;;;2.38;1.70;;;15.50;99.90;;;16.28;68.93;101938.47;4965407;28;20034;-76
2022/09/02 06:06:18;;;;;;;6.28;1.63;;;15.70;99.90;;;15.71;71.41;101938.63;4990248;28;20054;-76
2022/09/02 06:08:44;;;;;;;3.10;1.30;;;15.70;99.90;;;15.44;72.64;101938.16;4988234;28;20100;-76
2022/09/02 06:11:12;;;;;;;3.20;1.52;;;15.70;99.90;;;15.56;72.79;101943.75;4987817;28;20062;-76
2022/09/02 06:13:40;;;;;;;7.10;1.88;;;15.70;99.90;;;15.63;73.25;101939.00;4971520;28;20088;-75
2022/09/02 06:16:09;;;;;;;4.53;1.60;;;15.80;99.90;;;15.41;74.86;101947.13;4973618;28;20113;-76
2022/09/02 06:18:35;;;;;;;3.85;1.60;;;15.80;99.90;;;15.27;75.54;101941.59;4987640;28;20054;-76
2022/09/02 06:21:04;;;;;;;4.60;1.73;;;15.70;99.90;;;15.26;76.48;101939.91;4988507;28;20062;-76
2022/09/02 06:23:32;;;;;;;2.90;1.70;;;15.70;99.90;;;15.30;77.29;101952.09;4986989;28;20062;-76
2022/09/02 06:25:58;;;;;;;5.65;1.60;;;15.80;99.90;;;15.33;77.68;101952.81;4984811;28;20039;-76
2022/09/02 06:28:27;;;;;;;3.17;1.50;;;15.80;99.90;;;15.42;78.22;101955.94;4972424;28;20033;-76
2022/09/02 06:30:52;;;;;;;2.70;1.30;;;16.00;99.90;;;15.91;76.66;101956.25;4989455;28;20037;-75
2022/09/02 06:33:18;;;;;;;4.15;1.67;;;16.30;99.90;;;16.75;74.67;101959.06;4971236;28;20046;-76
2022/09/02 06:35:45;;;;;;;3.40;1.13;;;16.60;99.90;;;16.85;74.21;101963.00;4987996;28;20035;-76
2022/09/02 06:38:13;;;;;;;3.95;1.20;;;16.90;99.90;;;18.09;71.50;101970.31;4982524;28;20076;-76
2022/09/02 06:40:51;;;;;;;3.05;0.90;;;17.30;99.90;;;17.55;69.16;101960.06;4990849;28;20026;-76
2022/09/02 06:43:17;;;;;;;2.60;0.88;;;17.70;99.90;;;18.06;68.29;101959.84;4986431;28;20110;-76
2022/09/02 06:45:43;;;;;;;2.97;1.00;;;17.90;99.90;;;17.73;68.95;101959.03;4988190;28;20027;-76
2022/09/02 06:48:11;;;;;;;3.60;0.95;;;18.00;99.90;;;18.22;67.96;101960.66;4960858;28;20044;-76
2022/09/02 06:50:43;;;;;;;3.75;1.10;;;18.40;99.90;;;19.84;63.99;101963.00;4966642;28;20049;-75
2022/09/02 06:53:10;;;;;;;5.35;1.20;;;19.30;99.90;;;22.72;57.47;101975.38;4990050;28;20114;-76
2022/09/02 06:55:39;;;;;;;3.60;1.00;;;20.40;99.90;;;22.24;55.95;101964.75;4985876;28;20027;-76
2022/09/02 06:58:05;;;;;;;2.17;1.08;;;21.10;99.90;;;21.79;57.79;101969.94;4987938;28;20097;-76
2022/09/02 07:00:34;;;;;;;2.65;0.77;;;22.00;99.90;;;24.54;52.06;101984.75;4985353;28;20065;-76
2022/09/02 07:06:09;;;;;;;2.78;0.80;;;24.10;99.90;;;24.74;49.89;101977.63;4969906;28;20130;-76
2022/09/02 07:08:38;;;;;;;4.60;0.95;;;24.00;99.90;;;23.96;52.79;101987.84;4973392;28;20050;-76
2022/09/02 07:11:14;;;;;;;1.40;0.82;;;24.20;99.90;;;25.63;50.32;101999.38;4986353;28;20034;-76
2022/09/02 07:13:40;;;;;;;3.45;0.80;;;24.80;99.80;;;26.33;47.81;101989.38;4986188;28;20033;-76
2022/09/02 07:16:18;;;;;;;3.90;1.00;;;26.00;98.90;;;28.53;44.57;102000.28;5070556;28;20775;-77
2022/09/02 07:18:43;;;;;;;3.33;0.85;;;27.60;98.60;;;30.22;42.93;102003.09;5045969;28;20641;-77
2022/09/02 07:21:11;;;;;;;2.75;0.80;;;28.90;94.60;;;31.13;40.56;101999.22;5046659;28;20033;-77
2022/09/02 07:23:40;;;;;;;2.35;1.20;;;29.90;95.50;;;31.33;40.17;102009.66;5035197;28;20046;-77
2022/09/02 07:26:14;;;;;;;2.70;0.98;;;30.50;92.80;;;31.13;39.64;102004.66;5032870;28;20049;-77
2022/09/02 07:28:43;;;;;;;4.22;1.10;;;30.60;90.80;;;30.38;41.03;102003.09;5050391;28;20018;-77
2022/09/02 07:31:12;;;;;;;2.03;1.08;;;30.80;90.90;;;31.06;40.10;102009.13;5050998;28;20115;-77
2022/09/02 07:33:38;;;;;;;1.98;1.27;;;31.10;90.20;;;31.55;39.19;102018.94;5052656;28;20167;-77
2022/09/02 07:36:09;;;;;;;2.45;0.98;;;31.60;90.10;;;31.78;38.73;102019.81;5049992;28;20609;-77
2022/09/02 07:38:35;;;;;;;3.25;1.17;;;32.10;88.90;;;32.53;38.20;102020.09;5051111;28;20029;-77
2022/09/02 07:41:03;;;;;;;2.90;0.95;;;32.10;83.20;;;31.58;38.12;102004.97;5052319;28;20104;-77
2022/09/02 07:43:30;;;;;;;1.15;0.90;;;32.30;83.90;;;31.49;37.85;102020.50;5053050;28;20036;-78
2022/09/02 07:45:58;;;;;;;2.33;1.08;;;31.80;83.70;;;30.34;39.64;102018.06;5049363;28;20432;-77
2022/09/02 07:48:26;;;;;;;1.70;1.02;;;31.70;84.50;;;30.81;38.69;102017.31;5059614;28;20810;-77
2022/09/02 07:50:52;;;;;;;1.75;0.90;;;31.80;86.80;;;31.32;38.91;102019.72;5049980;28;20421;-78
2022/09/02 07:53:19;;;;;;;1.58;0.90;;;31.20;82.20;;;29.25;40.43;102019.00;5050893;28;20024;-77
2022/09/02 07:55:46;;;;;;;3.33;1.00;;;31.10;84.30;;;29.45;39.97;102025.84;5050424;28;20056;-77
2022/09/02 07:58:19;;;;;;;2.60;1.00;;;31.40;85.70;;;30.78;38.87;102017.66;5049301;28;20037;-78
2022/09/02 08:00:46;;;;;;;2.28;0.77;;;31.70;83.40;;;30.38;38.47;102024.84;5050209;28;20113;-78
2022/09/02 08:03:13;;;;;;;2.92;0.80;;;32.00;87.20;;;31.36;38.20;102025.63;5052716;28;20061;-78
2022/09/02 08:05:41;;;;;;;2.70;0.90;;;32.10;84.40;;;31.29;38.61;102022.78;5049002;28;20108;-77
2022/09/02 08:08:09;;;;;;;0.98;0.70;;;32.50;85.20;;;31.77;38.02;102033.59;5051461;28;20037;-77
2022/09/02 08:10:36;;;;;;;2.25;0.85;;;32.60;80.90;;;31.60;37.01;102025.53;5048168;28;20037;-78
2022/09/02 08:13:04;;;;;;;1.10;0.63;;;32.10;81.40;;;30.42;38.48;102020.78;5049861;28;20024;-78
2022/09/02 08:15:30;;;;;;;2.20;0.95;;;32.10;83.50;;;31.05;37.73;102023.72;5051387;28;20063;-78
2022/09/02 08:17:57;;;;;;;1.77;0.80;;;32.20;83.10;;;31.22;37.80;102030.78;5050380;28;20064;-78
2022/09/02 08:20:26;;;;;;;2.28;0.65;;;32.00;80.70;;;30.79;36.99;102032.09;5048607;28;20119;-78
2022/09/02 08:22:52;;;;;;;0.85;0.50;;;31.70;75.50;;;29.80;37.45;102021.22;5049977;28;20018;-78
2022/09/02 08:25:18;;;;;;;1.77;0.63;;;31.60;80.50;;;30.06;36.85;102020.22;5050584;28;20449;-78
2022/09/02 08:27:44;;;;;;;1.52;0.52;;;31.20;80.20;;;29.81;37.97;102027.50;5037198;28;20036;-79
2022/09/02 08:30:11;;;;;;;3.42;0.70;;;31.10;80.50;;;30.08;37.75;102026.34;5022201;28;20497;-77
2022/09/02 08:32:39;;;;;;;2.42;0.50;;;31.00;81.40;;;30.11;37.22;102026.03;5038357;28;20108;-75
2022/09/02 08:35:06;;;;;;;3.55;0.70;;;31.00;80.00;;;30.21;36.85;102032.13;5036865;28;20025;-76
2022/09/02 08:37:34;;;;;;;4.65;0.82;;;31.20;81.80;;;30.69;36.79;102018.69;5018983;28;20448;-75
2022/09/02 08:40:05;;;;;;;3.35;0.77;;;31.20;80.70;;;30.34;36.18;102028.09;5032047;28;20064;-76
2022/09/02 08:42:38;;;;;;;2.65;0.88;;;29.80;78.90;;;27.86;39.20;102015.25;5031230;28;20502;-76
2022/09/02 08:45:13;;;;;;;1.00;0.70;;;29.30;79.60;;;27.33;39.84;102009.56;5026302;28;20402;-76
2022/09/02 08:47:42;;;;;;;2.50;0.60;;;28.60;81.80;;;26.87;41.07;102014.00;5023143;28;20026;-75
2022/09/02 08:50:17;;;;;;;1.65;0.90;;;28.30;83.80;;;27.26;40.08;102013.00;5023983;28;20057;-76
2022/09/02 08:53:34;;;;;;;1.95;0.60;;;28.20;83.10;;;26.93;39.67;101999.91;5035875;28;20113;-75
2022/09/02 08:56:04;;;;;;;1.25;0.70;;;28.00;86.30;;;27.39;40.71;102000.00;5028582;28;20030;-76
2022/09/02 08:58:42;;;;;;;4.22;0.85;;;28.00;83.50;;;27.54;40.11;102003.06;5012495;28;20072;-76
2022/09/02 09:01:54;;;;;;;1.83;0.50;;;28.00;84.40;;;27.22;39.19;102000.81;5033681;28;20025;-76
2022/09/02 09:04:45;;;;;;;1.77;0.70;;;27.50;85.20;;;26.53;41.29;101989.34;5032474;28;20029;-76
2022/09/02 09:07:38;;;;;;;0.88;0.80;;;27.00;85.30;;;25.98;41.90;101982.72;5024500;28;20071;-76
2022/09/02 09:10:39;;;;;;;2.70;0.80;;;26.20;87.50;;;24.67;44.49;101977.31;5020981;28;20026;-75
2022/09/02 09:13:52;;;;;;;1.88;0.80;;;25.60;90.30;;;24.33;46.29;101985.56;5017339;28;20030;-75
2022/09/02 09:16:37;;;;;;;4.03;0.80;;;25.30;89.70;;;23.97;45.77;101975.22;5039675;28;20030;-76
2022/09/02 09:19:22;;;;;;;1.30;0.60;;;24.80;90.00;;;23.40;47.06;101966.47;5029855;28;20030;-76
2022/09/02 09:21:48;;;;;;;1.67;0.80;;;24.70;91.00;;;23.70;46.96;101971.16;5020306;28;20030;-76
2022/09/02 09:24:40;;;;;;;7.63;1.05;;;24.70;91.60;;;23.65;46.29;101962.59;5025060;28;20756;-76
2022/09/02 09:27:19;;;;;;;1.75;0.90;;;24.70;91.70;;;24.02;44.57;101962.28;5039479;28;20033;-76
2022/09/02 09:29:48;;;;;;;1.35;0.75;;;24.70;90.80;;;23.86;45.58;101960.84;5030608;28;20069;-76
2022/09/02 09:32:38;;;;;;;1.52;0.70;;;24.70;90.80;;;23.67;46.29;101953.44;5024183;28;20125;-77
2022/09/02 09:35:13;;;;;;;1.52;0.80;;;24.50;91.70;;;23.62;47.35;101952.09;5010941;28;20034;-77
2022/09/02 09:37:52;;;;;;;3.72;0.80;;;24.40;91.00;;;23.27;47.20;101945.09;5012415;28;20026;-77
2022/09/02 09:40:24;;;;;;;1.58;0.60;;;24.20;91.90;;;23.26;48.38;101957.69;5017851;28;20026;-77
2022/09/02 09:42:57;;;;;;;1.67;0.63;;;24.10;92.00;;;23.26;47.52;101944.25;5023820;28;20034;-77
2022/09/02 09:45:34;;;;;;;1.27;0.60;;;23.70;90.20;;;22.46;47.30;101937.16;5027304;28;20041;-78
2022/09/02 09:48:18;;;;;;;0.80;0.60;;;23.50;90.80;;;22.49;47.68;101941.41;5006971;28;20712;-77
2022/09/02 09:51:06;;;;;;;3.60;0.70;;;23.50;90.00;;;22.58;45.99;101927.28;5028294;28;20037;-77
2022/09/02 09:53:38;;;;;;;5.82;0.90;;;23.50;92.00;;;22.76;47.65;101927.63;5024686;22;20057;-76
2022/09/02 09:56:31;;;;;;;3.83;0.52;;;23.30;91.00;;;22.45;47.86;101924.69;4999698;28;20037;-77
2022/09/02 09:59:07;;;;;;;1.60;0.60;;;23.50;91.00;;;22.30;45.25;101921.38;4997512;28;20072;-77
2022/09/02 10:01:36;;;;;;;;;;;23.30;90.30;;;21.78;46.42;101916.44;5004897;28;20509;-76
2022/09/02 10:04:12;;;;;;;0.63;0.50;;;23.20;91.40;;;22.40;47.31;101918.84;4983669;28;19921;-77
2022/09/02 10:06:43;;;;;;;1.65;0.70;;;23.30;90.80;;;22.40;46.49;101912.63;5002733;28;20393;-76
2022/09/02 10:09:35;;;;;;;1.42;0.68;;;23.50;90.30;;;22.43;44.52;101915.06;5007683;28;20121;-77
2022/09/02 10:12:07;;;;;;;0.77;0.55;;;23.30;91.60;;;21.87;46.03;101905.84;4999359;28;20038;-76
2022/09/02 10:14:49;;;;;;;3.30;0.60;;;23.10;91.10;;;21.89;46.35;101909.28;5007957;28;20398;-77
2022/09/02 10:17:45;;;;;;;1.48;0.50;;;22.60;90.70;;;21.34;47.71;101904.47;4991090;28;20026;-77
2022/09/02 10:20:49;;;;;;;1.77;0.57;;;22.50;90.60;;;21.13;46.42;101904.25;4999937;28;20164;-76
2022/09/02 10:23:27;;;;;;;0.95;0.60;;;22.20;90.50;;;21.11;47.29;101899.00;5006810;28;20093;-76
2022/09/02 10:26:35;;;;;;;1.65;0.50;;;22.30;92.10;;;21.43;48.08;101896.66;5002796;28;20407;-77
2022/09/02 10:29:28;;;;;;;0.68;0.50;;;22.50;90.20;;;21.82;44.33;101896.47;5001095;28;20037;-76
2022/09/02 10:32:37;;;;;;;3.33;0.60;;;22.80;90.20;;;22.23;45.35;101903.19;5000882;28;20120;-77
2022/09/02 10:35:44;;;;;;;1.48;0.60;;;23.00;90.80;;;22.20;46.28;101896.22;5002674;28;20041;-75
2022/09/02 10:38:43;;;;;;;2.90;0.40;;;23.10;90.70;;;22.42;44.93;101897.22;5006664;28;20099;-76
2022/09/02 10:41:48;;;;;;;2.55;0.40;;;23.30;90.20;;;22.89;44.71;101897.97;4997722;28;20295;-76
2022/09/02 10:44:43;;;;;;;3.40;0.55;;;23.30;86.60;;;22.26;43.21;101894.91;4999759;28;20030;-76